Alder Creek, New York
Current Conditions -  °F | °C
As of 4:53 AM on Monday 20 Oct 2014 (Local Time) from KRME Reporting Station
Overcast Overcast  
Wind Chill: -2°   Ceiling: 12000
Heat Index:   Visibility: 10mi
Dew Point:   Wind: 6mph
Humidity: 92%   Direction: 80°E
Pressure: 30.03"   Gusts: NA
Location:  43.42°N, 75.23°W
Report Text: KRME 200853Z AUTO 08005KT 10SM OVC120 01/00 A3003 RMK AO2 SLP171 T00110000 57004 TSNO
Loading
Personal Weather Stations






























Interactive Weather Map
Tropical Storm Tracking
New forecast layout! Learn more

10-Day Weather Forecast

Advertisements
Track Severe Weather on mobile